sensor_id;sensor_type;location;lat;lon;timestamp;P1;durP1;ratioP1;P2;durP2;ratioP2
16270;SDS011;8243;49.048;8.396;2022-08-01T00:01:43;3.37;;;2.73;;
16270;SDS011;8243;49.048;8.396;2022-08-01T00:04:08;2.80;;;2.50;;
16270;SDS011;8243;49.048;8.396;2022-08-01T00:06:34;2.60;;;2.40;;
16270;SDS011;8243;49.048;8.396;2022-08-01T00:08:59;2.90;;;2.40;;
16270;SDS011;8243;49.048;8.396;2022-08-01T00:11:25;2.60;;;2.40;;
16270;SDS011;8243;49.048;8.396;2022-08-01T00:13:51;2.80;;;2.60;;
16270;SDS011;8243;49.048;8.396;2022-08-01T00:16:17;2.73;;;2.53;;
16270;SDS011;8243;49.048;8.396;2022-08-01T00:18:42;3.27;;;2.97;;
16270;SDS011;8243;49.048;8.396;2022-08-01T00:21:08;2.90;;;2.63;;
16270;SDS011;8243;49.048;8.396;2022-08-01T00:23:34;5.30;;;2.87;;
16270;SDS011;8243;49.048;8.396;2022-08-01T00:26:00;2.80;;;2.50;;
16270;SDS011;8243;49.048;8.396;2022-08-01T00:28:25;2.70;;;2.50;;
16270;SDS011;8243;49.048;8.396;2022-08-01T00:30:51;2.90;;;2.37;;
16270;SDS011;8243;49.048;8.396;2022-08-01T00:33:16;3.00;;;2.70;;
16270;SDS011;8243;49.048;8.396;2022-08-01T00:35:42;3.40;;;2.77;;
16270;SDS011;8243;49.048;8.396;2022-08-01T00:38:08;3.00;;;2.40;;
16270;SDS011;8243;49.048;8.396;2022-08-01T00:40:34;2.63;;;2.43;;
16270;SDS011;8243;49.048;8.396;2022-08-01T00:42:59;4.63;;;2.80;;
16270;SDS011;8243;49.048;8.396;2022-08-01T00:45:25;3.70;;;2.77;;
16270;SDS011;8243;49.048;8.396;2022-08-01T00:47:50;3.37;;;2.77;;
16270;SDS011;8243;49.048;8.396;2022-08-01T00:50:16;3.23;;;2.70;;
16270;SDS011;8243;49.048;8.396;2022-08-01T00:52:41;3.20;;;3.00;;
16270;SDS011;8243;49.048;8.396;2022-08-01T00:55:08;3.33;;;2.60;;
16270;SDS011;8243;49.048;8.396;2022-08-01T00:57:37;2.80;;;2.43;;
16270;SDS011;8243;49.048;8.396;2022-08-01T01:00:04;2.67;;;2.47;;
16270;SDS011;8243;49.048;8.396;2022-08-01T01:02:31;4.07;;;3.00;;
16270;SDS011;8243;49.048;8.396;2022-08-01T01:04:57;3.07;;;2.50;;
16270;SDS011;8243;49.048;8.396;2022-08-01T01:07:29;4.20;;;2.43;;
16270;SDS011;8243;49.048;8.396;2022-08-01T01:15:34;5.13;;;2.83;;
16270;SDS011;8243;49.048;8.396;2022-08-01T01:18:11;4.70;;;2.70;;
16270;SDS011;8243;49.048;8.396;2022-08-01T01:20:58;3.67;;;3.00;;
16270;SDS011;8243;49.048;8.396;2022-08-01T01:23:40;2.93;;;2.70;;
16270;SDS011;8243;49.048;8.396;2022-08-01T01:26:27;4.73;;;2.67;;
16270;SDS011;8243;49.048;8.396;2022-08-01T01:29:05;3.10;;;2.87;;
16270;SDS011;8243;49.048;8.396;2022-08-01T01:31:48;3.17;;;2.50;;
16270;SDS011;8243;49.048;8.396;2022-08-01T01:34:20;3.30;;;3.00;;
16270;SDS011;8243;49.048;8.396;2022-08-01T01:36:47;2.97;;;2.67;;
16270;SDS011;8243;49.048;8.396;2022-08-01T01:39:14;3.13;;;2.90;;
16270;SDS011;8243;49.048;8.396;2022-08-01T01:41:42;4.57;;;2.77;;
16270;SDS011;8243;49.048;8.396;2022-08-01T01:44:10;3.80;;;3.03;;
16270;SDS011;8243;49.048;8.396;2022-08-01T01:46:36;4.97;;;3.20;;
16270;SDS011;8243;49.048;8.396;2022-08-01T01:49:03;2.60;;;2.40;;
16270;SDS011;8243;49.048;8.396;2022-08-01T01:51:30;3.37;;;2.70;;
16270;SDS011;8243;49.048;8.396;2022-08-01T01:53:56;3.47;;;2.73;;
16270;SDS011;8243;49.048;8.396;2022-08-01T01:56:24;5.03;;;2.70;;
16270;SDS011;8243;49.048;8.396;2022-08-01T01:58:53;3.93;;;2.60;;
16270;SDS011;8243;49.048;8.396;2022-08-01T02:01:21;3.47;;;2.90;;
16270;SDS011;8243;49.048;8.396;2022-08-01T02:03:50;3.10;;;2.80;;
16270;SDS011;8243;49.048;8.396;2022-08-01T02:06:18;3.63;;;2.73;;
16270;SDS011;8243;49.048;8.396;2022-08-01T02:08:45;3.20;;;2.90;;
16270;SDS011;8243;49.048;8.396;2022-08-01T02:11:12;3.30;;;3.00;;
16270;SDS011;8243;49.048;8.396;2022-08-01T02:13:45;3.10;;;2.80;;
16270;SDS011;8243;49.048;8.396;2022-08-01T02:16:15;2.87;;;2.67;;
16270;SDS011;8243;49.048;8.396;2022-08-01T02:18:42;4.30;;;2.80;;
16270;SDS011;8243;49.048;8.396;2022-08-01T02:21:08;3.53;;;2.97;;
16270;SDS011;8243;49.048;8.396;2022-08-01T02:23:36;3.53;;;2.90;;
16270;SDS011;8243;49.048;8.396;2022-08-01T02:26:05;3.10;;;2.80;;
16270;SDS011;8243;49.048;8.396;2022-08-01T02:28:36;3.50;;;2.57;;
16270;SDS011;8243;49.048;8.396;2022-08-01T02:31:07;3.37;;;3.07;;
16270;SDS011;8243;49.048;8.396;2022-08-01T02:33:40;3.37;;;2.90;;
16270;SDS011;8243;49.048;8.396;2022-08-01T02:36:08;3.30;;;3.00;;
16270;SDS011;8243;49.048;8.396;2022-08-01T02:38:40;3.20;;;2.90;;
16270;SDS011;8243;49.048;8.396;2022-08-01T02:41:08;3.17;;;2.93;;
16270;SDS011;8243;49.048;8.396;2022-08-01T02:43:38;3.60;;;3.30;;
16270;SDS011;8243;49.048;8.396;2022-08-01T02:46:08;3.10;;;2.90;;
16270;SDS011;8243;49.048;8.396;2022-08-01T02:48:41;3.50;;;2.90;;
16270;SDS011;8243;49.048;8.396;2022-08-01T02:51:07;4.67;;;2.93;;
16270;SDS011;8243;49.048;8.396;2022-08-01T02:53:36;3.30;;;3.00;;
16270;SDS011;8243;49.048;8.396;2022-08-01T02:56:05;2.97;;;2.67;;
16270;SDS011;8243;49.048;8.396;2022-08-01T02:58:33;3.33;;;3.03;;
16270;SDS011;8243;49.048;8.396;2022-08-01T03:01:02;3.30;;;2.93;;
16270;SDS011;8243;49.048;8.396;2022-08-01T03:03:30;4.63;;;2.90;;
16270;SDS011;8243;49.048;8.396;2022-08-01T03:05:56;2.90;;;2.70;;
16270;SDS011;8243;49.048;8.396;2022-08-01T03:08:23;3.27;;;3.00;;
16270;SDS011;8243;49.048;8.396;2022-08-01T03:10:49;3.30;;;3.00;;
16270;SDS011;8243;49.048;8.396;2022-08-01T03:13:17;6.33;;;3.37;;
16270;SDS011;8243;49.048;8.396;2022-08-01T03:15:44;4.33;;;2.97;;
16270;SDS011;8243;49.048;8.396;2022-08-01T03:18:11;4.67;;;3.10;;
16270;SDS011;8243;49.048;8.396;2022-08-01T03:20:38;4.07;;;3.30;;
16270;SDS011;8243;49.048;8.396;2022-08-01T03:23:06;3.37;;;3.10;;
16270;SDS011;8243;49.048;8.396;2022-08-01T03:25:34;2.80;;;2.60;;
16270;SDS011;8243;49.048;8.396;2022-08-01T03:28:03;3.20;;;3.00;;
16270;SDS011;8243;49.048;8.396;2022-08-01T03:30:31;2.90;;;2.70;;
16270;SDS011;8243;49.048;8.396;2022-08-01T03:32:58;3.57;;;3.27;;
16270;SDS011;8243;49.048;8.396;2022-08-01T03:35:29;3.40;;;3.10;;
16270;SDS011;8243;49.048;8.396;2022-08-01T03:37:58;5.53;;;3.17;;
16270;SDS011;8243;49.048;8.396;2022-08-01T03:40:43;4.90;;;3.63;;
16270;SDS011;8243;49.048;8.396;2022-08-01T03:43:26;3.83;;;3.20;;
16270;SDS011;8243;49.048;8.396;2022-08-01T03:45:54;4.20;;;3.80;;
16270;SDS011;8243;49.048;8.396;2022-08-01T03:48:27;4.63;;;3.70;;
16270;SDS011;8243;49.048;8.396;2022-08-01T03:50:56;8.20;;;3.53;;
16270;SDS011;8243;49.048;8.396;2022-08-01T03:53:24;9.40;;;3.40;;
16270;SDS011;8243;49.048;8.396;2022-08-01T03:55:53;3.53;;;3.23;;
16270;SDS011;8243;49.048;8.396;2022-08-01T03:58:21;4.40;;;3.43;;
16270;SDS011;8243;49.048;8.396;2022-08-01T04:00:47;5.30;;;3.73;;
16270;SDS011;8243;49.048;8.396;2022-08-01T04:03:13;3.63;;;3.33;;
16270;SDS011;8243;49.048;8.396;2022-08-01T04:05:43;5.50;;;3.17;;
16270;SDS011;8243;49.048;8.396;2022-08-01T04:08:08;9.57;;;3.57;;
16270;SDS011;8243;49.048;8.396;2022-08-01T04:10:34;3.67;;;3.20;;
16270;SDS011;8243;49.048;8.396;2022-08-01T04:13:01;6.90;;;3.60;;
16270;SDS011;8243;49.048;8.396;2022-08-01T04:15:27;6.00;;;3.60;;
16270;SDS011;8243;49.048;8.396;2022-08-01T04:17:53;4.37;;;3.50;;
16270;SDS011;8243;49.048;8.396;2022-08-01T04:20:20;5.97;;;3.80;;
16270;SDS011;8243;49.048;8.396;2022-08-01T04:22:46;5.13;;;3.30;;
16270;SDS011;8243;49.048;8.396;2022-08-01T04:25:33;7.53;;;3.43;;
16270;SDS011;8243;49.048;8.396;2022-08-01T04:27:59;3.73;;;3.43;;
16270;SDS011;8243;49.048;8.396;2022-08-01T04:30:33;4.20;;;3.50;;
16270;SDS011;8243;49.048;8.396;2022-08-01T04:33:01;3.70;;;3.30;;
16270;SDS011;8243;49.048;8.396;2022-08-01T04:35:30;4.17;;;3.53;;
16270;SDS011;8243;49.048;8.396;2022-08-01T04:37:57;6.60;;;3.50;;
16270;SDS011;8243;49.048;8.396;2022-08-01T04:40:26;7.23;;;3.13;;
16270;SDS011;8243;49.048;8.396;2022-08-01T04:42:53;15.10;;;3.77;;
16270;SDS011;8243;49.048;8.396;2022-08-01T04:45:18;13.87;;;3.57;;
16270;SDS011;8243;49.048;8.396;2022-08-01T04:47:45;13.60;;;3.93;;
16270;SDS011;8243;49.048;8.396;2022-08-01T04:50:12;9.07;;;3.10;;
16270;SDS011;8243;49.048;8.396;2022-08-01T04:52:38;3.43;;;2.90;;
16270;SDS011;8243;49.048;8.396;2022-08-01T04:55:07;3.73;;;2.60;;
16270;SDS011;8243;49.048;8.396;2022-08-01T04:57:36;4.90;;;2.77;;
16270;SDS011;8243;49.048;8.396;2022-08-01T05:00:05;4.93;;;2.80;;
16270;SDS011;8243;49.048;8.396;2022-08-01T05:02:32;4.13;;;2.70;;
16270;SDS011;8243;49.048;8.396;2022-08-01T05:04:57;4.17;;;2.60;;
16270;SDS011;8243;49.048;8.396;2022-08-01T05:07:23;5.53;;;2.60;;
16270;SDS011;8243;49.048;8.396;2022-08-01T05:09:56;3.00;;;2.43;;
16270;SDS011;8243;49.048;8.396;2022-08-01T05:12:25;2.60;;;2.40;;
16270;SDS011;8243;49.048;8.396;2022-08-01T05:14:51;2.50;;;2.30;;
16270;SDS011;8243;49.048;8.396;2022-08-01T05:17:17;4.67;;;2.60;;
16270;SDS011;8243;49.048;8.396;2022-08-01T05:20:00;2.87;;;2.40;;
16270;SDS011;8243;49.048;8.396;2022-08-01T05:22:39;6.30;;;2.57;;
16270;SDS011;8243;49.048;8.396;2022-08-01T05:25:05;3.10;;;2.50;;
16270;SDS011;8243;49.048;8.396;2022-08-01T05:27:34;2.73;;;2.10;;
16270;SDS011;8243;49.048;8.396;2022-08-01T05:30:07;3.23;;;2.37;;
16270;SDS011;8243;49.048;8.396;2022-08-01T05:32:33;2.23;;;2.10;;
16270;SDS011;8243;49.048;8.396;2022-08-01T05:34:59;2.60;;;2.20;;
16270;SDS011;8243;49.048;8.396;2022-08-01T05:37:27;3.70;;;2.40;;
16270;SDS011;8243;49.048;8.396;2022-08-01T05:39:53;5.87;;;2.23;;
16270;SDS011;8243;49.048;8.396;2022-08-01T05:42:26;2.40;;;2.20;;
16270;SDS011;8243;49.048;8.396;2022-08-01T05:44:51;3.20;;;2.07;;
16270;SDS011;8243;49.048;8.396;2022-08-01T05:47:17;2.43;;;2.20;;
16270;SDS011;8243;49.048;8.396;2022-08-01T05:49:43;2.30;;;2.10;;
16270;SDS011;8243;49.048;8.396;2022-08-01T05:52:10;4.90;;;2.30;;
16270;SDS011;8243;49.048;8.396;2022-08-01T05:54:36;4.00;;;1.97;;
16270;SDS011;8243;49.048;8.396;2022-08-01T05:57:02;3.30;;;1.93;;
16270;SDS011;8243;49.048;8.396;2022-08-01T05:59:28;2.70;;;2.10;;
16270;SDS011;8243;49.048;8.396;2022-08-01T06:01:54;5.10;;;2.07;;
16270;SDS011;8243;49.048;8.396;2022-08-01T06:04:19;2.53;;;1.80;;
16270;SDS011;8243;49.048;8.396;2022-08-01T06:06:45;3.30;;;2.30;;
16270;SDS011;8243;49.048;8.396;2022-08-01T06:09:11;2.60;;;2.10;;
16270;SDS011;8243;49.048;8.396;2022-08-01T06:11:36;2.20;;;2.00;;
16270;SDS011;8243;49.048;8.396;2022-08-01T06:14:02;2.60;;;2.00;;
16270;SDS011;8243;49.048;8.396;2022-08-01T06:16:27;2.40;;;2.00;;
16270;SDS011;8243;49.048;8.396;2022-08-01T06:18:53;3.27;;;2.07;;
16270;SDS011;8243;49.048;8.396;2022-08-01T06:21:18;3.63;;;1.70;;
16270;SDS011;8243;49.048;8.396;2022-08-01T06:23:44;2.70;;;2.00;;
16270;SDS011;8243;49.048;8.396;2022-08-01T06:26:10;2.07;;;1.70;;
16270;SDS011;8243;49.048;8.396;2022-08-01T06:28:39;4.80;;;1.90;;
16270;SDS011;8243;49.048;8.396;2022-08-01T06:31:05;3.42;;;2.10;;
16270;SDS011;8243;49.048;8.396;2022-08-01T06:33:30;2.85;;;2.03;;
16270;SDS011;8243;49.048;8.396;2022-08-01T06:35:59;4.57;;;1.88;;
16270;SDS011;8243;49.048;8.396;2022-08-01T06:38:25;2.65;;;2.05;;
16270;SDS011;8243;49.048;8.396;2022-08-01T06:40:51;1.85;;;1.70;;
16270;SDS011;8243;49.048;8.396;2022-08-01T06:43:19;2.42;;;1.70;;
16270;SDS011;8243;49.048;8.396;2022-08-01T06:45:48;3.33;;;1.75;;
16270;SDS011;8243;49.048;8.396;2022-08-01T06:48:14;2.20;;;1.30;;
16270;SDS011;8243;49.048;8.396;2022-08-01T06:50:40;2.15;;;1.48;;
16270;SDS011;8243;49.048;8.396;2022-08-01T06:53:06;2.45;;;1.55;;
16270;SDS011;8243;49.048;8.396;2022-08-01T06:55:32;2.42;;;1.65;;
16270;SDS011;8243;49.048;8.396;2022-08-01T06:57:58;2.22;;;1.60;;
16270;SDS011;8243;49.048;8.396;2022-08-01T07:00:24;2.58;;;1.60;;
16270;SDS011;8243;49.048;8.396;2022-08-01T07:02:51;2.72;;;1.40;;
16270;SDS011;8243;49.048;8.396;2022-08-01T07:05:18;1.80;;;1.33;;
16270;SDS011;8243;49.048;8.396;2022-08-01T07:07:45;1.77;;;1.40;;
16270;SDS011;8243;49.048;8.396;2022-08-01T07:10:10;2.67;;;1.20;;
16270;SDS011;8243;49.048;8.396;2022-08-01T07:12:37;2.63;;;1.67;;
16270;SDS011;8243;49.048;8.396;2022-08-01T07:15:06;2.50;;;1.20;;
16270;SDS011;8243;49.048;8.396;2022-08-01T07:17:40;1.38;;;1.10;;
16270;SDS011;8243;49.048;8.396;2022-08-01T07:20:10;2.72;;;1.15;;
16270;SDS011;8243;49.048;8.396;2022-08-01T07:22:40;1.73;;;1.25;;
16270;SDS011;8243;49.048;8.396;2022-08-01T07:25:06;1.45;;;1.35;;
16270;SDS011;8243;49.048;8.396;2022-08-01T07:27:32;2.08;;;1.17;;
16270;SDS011;8243;49.048;8.396;2022-08-01T07:29:58;2.60;;;1.30;;
16270;SDS011;8243;49.048;8.396;2022-08-01T07:32:24;1.90;;;1.13;;
16270;SDS011;8243;49.048;8.396;2022-08-01T07:34:50;3.42;;;1.20;;
16270;SDS011;8243;49.048;8.396;2022-08-01T07:37:15;1.88;;;1.33;;
16270;SDS011;8243;49.048;8.396;2022-08-01T07:39:41;2.72;;;1.45;;
16270;SDS011;8243;49.048;8.396;2022-08-01T07:42:07;1.55;;;1.35;;
16270;SDS011;8243;49.048;8.396;2022-08-01T07:44:32;2.13;;;1.30;;
16270;SDS011;8243;49.048;8.396;2022-08-01T07:46:58;1.27;;;1.17;;
16270;SDS011;8243;49.048;8.396;2022-08-01T07:49:24;1.52;;;1.20;;
16270;SDS011;8243;49.048;8.396;2022-08-01T07:51:49;1.02;;;0.98;;
16270;SDS011;8243;49.048;8.396;2022-08-01T07:54:15;1.15;;;1.05;;
16270;SDS011;8243;49.048;8.396;2022-08-01T07:56:40;2.33;;;1.48;;
16270;SDS011;8243;49.048;8.396;2022-08-01T07:59:06;2.67;;;1.27;;
16270;SDS011;8243;49.048;8.396;2022-08-01T08:01:31;3.03;;;1.23;;
16270;SDS011;8243;49.048;8.396;2022-08-01T08:03:57;1.67;;;1.30;;
16270;SDS011;8243;49.048;8.396;2022-08-01T08:06:26;2.17;;;1.35;;
16270;SDS011;8243;49.048;8.396;2022-08-01T08:08:54;1.30;;;1.10;;
16270;SDS011;8243;49.048;8.396;2022-08-01T08:11:20;2.55;;;1.63;;
16270;SDS011;8243;49.048;8.396;2022-08-01T08:13:45;2.25;;;1.40;;
16270;SDS011;8243;49.048;8.396;2022-08-01T08:16:11;1.40;;;1.30;;
16270;SDS011;8243;49.048;8.396;2022-08-01T08:18:36;2.13;;;1.70;;
16270;SDS011;8243;49.048;8.396;2022-08-01T08:21:03;4.67;;;1.97;;
16270;SDS011;8243;49.048;8.396;2022-08-01T08:23:28;2.80;;;1.70;;
16270;SDS011;8243;49.048;8.396;2022-08-01T08:26:12;5.50;;;2.10;;
16270;SDS011;8243;49.048;8.396;2022-08-01T08:28:38;2.90;;;1.53;;
16270;SDS011;8243;49.048;8.396;2022-08-01T08:31:03;2.20;;;1.87;;
16270;SDS011;8243;49.048;8.396;2022-08-01T08:33:29;1.70;;;1.60;;
16270;SDS011;8243;49.048;8.396;2022-08-01T08:35:55;2.17;;;1.50;;
16270;SDS011;8243;49.048;8.396;2022-08-01T08:38:20;4.17;;;1.90;;
16270;SDS011;8243;49.048;8.396;2022-08-01T08:40:46;1.60;;;1.30;;
16270;SDS011;8243;49.048;8.396;2022-08-01T08:43:12;1.40;;;1.30;;
16270;SDS011;8243;49.048;8.396;2022-08-01T08:45:39;1.37;;;1.20;;
16270;SDS011;8243;49.048;8.396;2022-08-01T08:48:06;1.30;;;1.20;;
16270;SDS011;8243;49.048;8.396;2022-08-01T08:50:32;2.27;;;1.50;;
16270;SDS011;8243;49.048;8.396;2022-08-01T08:52:58;3.30;;;1.13;;
16270;SDS011;8243;49.048;8.396;2022-08-01T08:55:26;2.77;;;1.33;;
16270;SDS011;8243;49.048;8.396;2022-08-01T08:57:53;3.07;;;1.40;;
16270;SDS011;8243;49.048;8.396;2022-08-01T09:00:19;1.80;;;1.40;;
16270;SDS011;8243;49.048;8.396;2022-08-01T09:02:46;2.40;;;1.47;;
16270;SDS011;8243;49.048;8.396;2022-08-01T09:05:14;1.40;;;1.30;;
16270;SDS011;8243;49.048;8.396;2022-08-01T09:07:39;3.13;;;1.30;;
16270;SDS011;8243;49.048;8.396;2022-08-01T09:10:05;2.40;;;1.37;;
16270;SDS011;8243;49.048;8.396;2022-08-01T09:12:32;1.70;;;1.20;;
16270;SDS011;8243;49.048;8.396;2022-08-01T09:14:58;1.70;;;1.10;;
16270;SDS011;8243;49.048;8.396;2022-08-01T09:17:23;2.00;;;1.13;;
16270;SDS011;8243;49.048;8.396;2022-08-01T09:19:53;4.33;;;1.80;;
16270;SDS011;8243;49.048;8.396;2022-08-01T09:22:21;1.40;;;1.30;;
16270;SDS011;8243;49.048;8.396;2022-08-01T09:25:02;2.03;;;1.40;;
16270;SDS011;8243;49.048;8.396;2022-08-01T09:27:30;1.20;;;1.20;;
16270;SDS011;8243;49.048;8.396;2022-08-01T09:30:11;3.13;;;1.27;;
16270;SDS011;8243;49.048;8.396;2022-08-01T09:32:59;1.43;;;1.33;;
16270;SDS011;8243;49.048;8.396;2022-08-01T09:35:27;1.50;;;1.30;;
16270;SDS011;8243;49.048;8.396;2022-08-01T09:38:19;1.63;;;1.30;;
16270;SDS011;8243;49.048;8.396;2022-08-01T09:40:50;2.57;;;1.13;;
16270;SDS011;8243;49.048;8.396;2022-08-01T09:43:16;2.07;;;1.30;;
16270;SDS011;8243;49.048;8.396;2022-08-01T09:45:43;1.60;;;1.20;;
16270;SDS011;8243;49.048;8.396;2022-08-01T09:48:09;3.70;;;1.50;;
16270;SDS011;8243;49.048;8.396;2022-08-01T09:50:38;3.47;;;1.60;;
16270;SDS011;8243;49.048;8.396;2022-08-01T09:53:05;2.07;;;1.43;;
16270;SDS011;8243;49.048;8.396;2022-08-01T09:55:34;1.40;;;1.30;;
16270;SDS011;8243;49.048;8.396;2022-08-01T09:57:59;1.50;;;1.40;;
16270;SDS011;8243;49.048;8.396;2022-08-01T10:00:26;2.00;;;1.37;;
16270;SDS011;8243;49.048;8.396;2022-08-01T10:02:52;1.60;;;1.50;;
16270;SDS011;8243;49.048;8.396;2022-08-01T10:05:17;2.97;;;1.53;;
16270;SDS011;8243;49.048;8.396;2022-08-01T10:07:55;3.07;;;1.50;;
16270;SDS011;8243;49.048;8.396;2022-08-01T10:10:22;2.70;;;1.30;;
16270;SDS011;8243;49.048;8.396;2022-08-01T10:12:48;1.40;;;1.30;;
16270;SDS011;8243;49.048;8.396;2022-08-01T10:15:16;2.43;;;1.20;;
16270;SDS011;8243;49.048;8.396;2022-08-01T10:18:04;3.80;;;1.50;;
16270;SDS011;8243;49.048;8.396;2022-08-01T10:20:32;1.93;;;1.83;;
16270;SDS011;8243;49.048;8.396;2022-08-01T10:22:59;1.93;;;1.53;;
16270;SDS011;8243;49.048;8.396;2022-08-01T10:25:27;2.73;;;1.50;;
16270;SDS011;8243;49.048;8.396;2022-08-01T10:27:57;1.30;;;1.20;;
16270;SDS011;8243;49.048;8.396;2022-08-01T10:30:34;1.37;;;1.20;;
16270;SDS011;8243;49.048;8.396;2022-08-01T10:33:01;4.00;;;1.80;;
16270;SDS011;8243;49.048;8.396;2022-08-01T10:35:27;2.47;;;1.60;;
16270;SDS011;8243;49.048;8.396;2022-08-01T10:37:53;3.33;;;1.50;;
16270;SDS011;8243;49.048;8.396;2022-08-01T10:40:22;1.93;;;1.60;;
16270;SDS011;8243;49.048;8.396;2022-08-01T10:42:48;1.50;;;1.40;;
16270;SDS011;8243;49.048;8.396;2022-08-01T10:45:15;3.77;;;1.50;;
16270;SDS011;8243;49.048;8.396;2022-08-01T10:47:45;1.60;;;1.50;;
16270;SDS011;8243;49.048;8.396;2022-08-01T10:53:09;1.40;;;1.30;;
16270;SDS011;8243;49.048;8.396;2022-08-01T11:01:20;2.80;;;1.50;;
16270;SDS011;8243;49.048;8.396;2022-08-01T11:04:09;1.70;;;1.57;;
16270;SDS011;8243;49.048;8.396;2022-08-01T11:06:41;2.50;;;1.70;;
16270;SDS011;8243;49.048;8.396;2022-08-01T11:09:30;4.80;;;1.77;;
16270;SDS011;8243;49.048;8.396;2022-08-01T11:12:16;1.50;;;1.40;;
16270;SDS011;8243;49.048;8.396;2022-08-01T11:17:30;1.40;;;1.30;;
16270;SDS011;8243;49.048;8.396;2022-08-01T11:20:15;2.17;;;1.80;;
16270;SDS011;8243;49.048;8.396;2022-08-01T11:30:45;4.63;;;1.90;;
16270;SDS011;8243;49.048;8.396;2022-08-01T11:33:13;4.80;;;1.50;;
16270;SDS011;8243;49.048;8.396;2022-08-01T11:43:56;1.53;;;1.40;;
16270;SDS011;8243;49.048;8.396;2022-08-01T11:46:47;1.50;;;1.40;;
16270;SDS011;8243;49.048;8.396;2022-08-01T11:52:03;1.60;;;1.50;;
16270;SDS011;8243;49.048;8.396;2022-08-01T11:54:34;1.57;;;1.40;;
16270;SDS011;8243;49.048;8.396;2022-08-01T11:57:19;2.30;;;1.50;;
16270;SDS011;8243;49.048;8.396;2022-08-01T11:59:54;2.73;;;1.40;;
16270;SDS011;8243;49.048;8.396;2022-08-01T12:02:22;2.30;;;1.60;;
16270;SDS011;8243;49.048;8.396;2022-08-01T12:04:53;4.37;;;1.60;;
16270;SDS011;8243;49.048;8.396;2022-08-01T12:07:19;1.60;;;1.50;;
16270;SDS011;8243;49.048;8.396;2022-08-01T12:09:45;1.40;;;1.30;;
16270;SDS011;8243;49.048;8.396;2022-08-01T12:12:14;3.10;;;1.50;;
16270;SDS011;8243;49.048;8.396;2022-08-01T12:14:52;1.70;;;1.50;;
16270;SDS011;8243;49.048;8.396;2022-08-01T12:17:28;2.93;;;1.60;;
16270;SDS011;8243;49.048;8.396;2022-08-01T12:19:59;2.03;;;1.73;;
16270;SDS011;8243;49.048;8.396;2022-08-01T12:22:25;2.13;;;1.80;;
16270;SDS011;8243;49.048;8.396;2022-08-01T12:24:50;1.93;;;1.33;;
16270;SDS011;8243;49.048;8.396;2022-08-01T12:27:26;1.77;;;1.50;;
16270;SDS011;8243;49.048;8.396;2022-08-01T12:29:53;2.20;;;1.30;;
16270;SDS011;8243;49.048;8.396;2022-08-01T12:32:21;2.87;;;1.50;;
16270;SDS011;8243;49.048;8.396;2022-08-01T12:35:00;2.83;;;1.63;;
16270;SDS011;8243;49.048;8.396;2022-08-01T12:37:43;1.57;;;1.47;;
16270;SDS011;8243;49.048;8.396;2022-08-01T12:40:12;3.13;;;1.57;;
16270;SDS011;8243;49.048;8.396;2022-08-01T12:42:43;4.50;;;1.50;;
16270;SDS011;8243;49.048;8.396;2022-08-01T12:45:14;3.20;;;1.40;;
16270;SDS011;8243;49.048;8.396;2022-08-01T12:47:42;3.53;;;1.50;;
16270;SDS011;8243;49.048;8.396;2022-08-01T12:50:11;3.30;;;1.53;;
16270;SDS011;8243;49.048;8.396;2022-08-01T12:52:38;2.13;;;1.57;;
16270;SDS011;8243;49.048;8.396;2022-08-01T12:55:14;2.47;;;1.37;;
16270;SDS011;8243;49.048;8.396;2022-08-01T12:57:42;1.43;;;1.30;;
16270;SDS011;8243;49.048;8.396;2022-08-01T13:02:35;3.00;;;1.30;;
16270;SDS011;8243;49.048;8.396;2022-08-01T13:05:02;1.30;;;1.20;;
16270;SDS011;8243;49.048;8.396;2022-08-01T13:07:37;2.83;;;1.60;;
16270;SDS011;8243;49.048;8.396;2022-08-01T13:10:05;1.73;;;1.37;;
16270;SDS011;8243;49.048;8.396;2022-08-01T13:12:32;2.53;;;1.30;;
16270;SDS011;8243;49.048;8.396;2022-08-01T13:14:57;3.60;;;1.20;;
16270;SDS011;8243;49.048;8.396;2022-08-01T13:17:29;1.73;;;1.30;;
16270;SDS011;8243;49.048;8.396;2022-08-01T13:19:56;1.40;;;1.30;;
16270;SDS011;8243;49.048;8.396;2022-08-01T13:22:30;2.43;;;1.20;;
16270;SDS011;8243;49.048;8.396;2022-08-01T13:25:13;1.27;;;1.20;;
16270;SDS011;8243;49.048;8.396;2022-08-01T13:27:39;2.30;;;1.10;;
16270;SDS011;8243;49.048;8.396;2022-08-01T13:30:12;1.80;;;1.20;;
16270;SDS011;8243;49.048;8.396;2022-08-01T13:32:43;1.17;;;1.10;;
16270;SDS011;8243;49.048;8.396;2022-08-01T13:35:21;1.73;;;1.10;;
16270;SDS011;8243;49.048;8.396;2022-08-01T13:37:47;1.20;;;1.20;;
16270;SDS011;8243;49.048;8.396;2022-08-01T13:40:22;1.23;;;1.13;;
16270;SDS011;8243;49.048;8.396;2022-08-01T13:42:52;1.07;;;1.07;;
16270;SDS011;8243;49.048;8.396;2022-08-01T13:45:19;2.07;;;1.07;;
16270;SDS011;8243;49.048;8.396;2022-08-01T13:47:45;1.77;;;1.30;;
16270;SDS011;8243;49.048;8.396;2022-08-01T13:50:10;1.20;;;1.03;;
16270;SDS011;8243;49.048;8.396;2022-08-01T13:52:36;2.37;;;1.20;;
16270;SDS011;8243;49.048;8.396;2022-08-01T13:55:01;1.20;;;1.10;;
16270;SDS011;8243;49.048;8.396;2022-08-01T13:57:28;3.63;;;1.13;;
16270;SDS011;8243;49.048;8.396;2022-08-01T13:59:53;1.17;;;1.17;;
16270;SDS011;8243;49.048;8.396;2022-08-01T14:02:19;1.33;;;0.97;;
16270;SDS011;8243;49.048;8.396;2022-08-01T14:04:45;1.57;;;1.10;;
16270;SDS011;8243;49.048;8.396;2022-08-01T14:07:11;6.00;;;1.60;;
16270;SDS011;8243;49.048;8.396;2022-08-01T14:09:37;1.57;;;1.20;;
16270;SDS011;8243;49.048;8.396;2022-08-01T14:12:03;2.40;;;1.30;;
16270;SDS011;8243;49.048;8.396;2022-08-01T14:14:28;1.57;;;1.23;;
16270;SDS011;8243;49.048;8.396;2022-08-01T14:16:55;1.50;;;1.23;;
16270;SDS011;8243;49.048;8.396;2022-08-01T14:19:20;2.70;;;1.50;;
16270;SDS011;8243;49.048;8.396;2022-08-01T14:21:46;2.17;;;1.10;;
16270;SDS011;8243;49.048;8.396;2022-08-01T14:24:11;2.13;;;1.30;;
16270;SDS011;8243;49.048;8.396;2022-08-01T14:26:37;2.13;;;1.30;;
16270;SDS011;8243;49.048;8.396;2022-08-01T14:29:03;2.03;;;0.97;;
16270;SDS011;8243;49.048;8.396;2022-08-01T14:31:28;1.40;;;1.30;;
16270;SDS011;8243;49.048;8.396;2022-08-01T14:33:54;2.10;;;1.30;;
16270;SDS011;8243;49.048;8.396;2022-08-01T14:36:20;3.97;;;1.23;;
16270;SDS011;8243;49.048;8.396;2022-08-01T14:38:45;2.00;;;1.13;;
16270;SDS011;8243;49.048;8.396;2022-08-01T14:41:11;3.27;;;1.10;;
16270;SDS011;8243;49.048;8.396;2022-08-01T14:43:37;1.53;;;1.43;;
16270;SDS011;8243;49.048;8.396;2022-08-01T14:46:03;2.37;;;1.10;;
16270;SDS011;8243;49.048;8.396;2022-08-01T14:48:29;1.47;;;1.23;;
16270;SDS011;8243;49.048;8.396;2022-08-01T14:50:55;2.77;;;1.20;;
16270;SDS011;8243;49.048;8.396;2022-08-01T14:53:21;1.30;;;1.17;;
16270;SDS011;8243;49.048;8.396;2022-08-01T14:55:47;1.73;;;1.00;;
16270;SDS011;8243;49.048;8.396;2022-08-01T14:58:12;4.13;;;1.60;;
16270;SDS011;8243;49.048;8.396;2022-08-01T15:00:38;4.13;;;1.10;;
16270;SDS011;8243;49.048;8.396;2022-08-01T15:03:03;1.97;;;1.30;;
16270;SDS011;8243;49.048;8.396;2022-08-01T15:05:29;1.70;;;1.20;;
16270;SDS011;8243;49.048;8.396;2022-08-01T15:07:56;3.10;;;1.10;;
16270;SDS011;8243;49.048;8.396;2022-08-01T15:10:21;5.70;;;1.40;;
16270;SDS011;8243;49.048;8.396;2022-08-01T15:12:47;1.37;;;1.27;;
16270;SDS011;8243;49.048;8.396;2022-08-01T15:15:13;2.00;;;1.10;;
16270;SDS011;8243;49.048;8.396;2022-08-01T15:17:39;3.03;;;1.10;;
16270;SDS011;8243;49.048;8.396;2022-08-01T15:20:07;2.80;;;1.43;;
16270;SDS011;8243;49.048;8.396;2022-08-01T15:22:35;2.33;;;1.27;;
16270;SDS011;8243;49.048;8.396;2022-08-01T15:25:01;2.10;;;1.40;;
16270;SDS011;8243;49.048;8.396;2022-08-01T15:27:28;1.10;;;0.97;;
16270;SDS011;8243;49.048;8.396;2022-08-01T15:29:54;2.00;;;1.30;;
16270;SDS011;8243;49.048;8.396;2022-08-01T15:32:21;1.87;;;1.03;;
16270;SDS011;8243;49.048;8.396;2022-08-01T15:34:47;1.37;;;1.20;;
16270;SDS011;8243;49.048;8.396;2022-08-01T15:37:13;1.30;;;1.20;;
16270;SDS011;8243;49.048;8.396;2022-08-01T15:39:39;2.20;;;1.17;;
16270;SDS011;8243;49.048;8.396;2022-08-01T15:42:07;2.67;;;1.20;;
16270;SDS011;8243;49.048;8.396;2022-08-01T15:44:34;3.13;;;1.37;;
16270;SDS011;8243;49.048;8.396;2022-08-01T15:47:00;4.57;;;1.13;;